createdAt,value
2023-01-13T00:01:28.411Z,58.02
2023-01-13T00:03:56.897Z,63.80
2023-01-13T00:06:25.719Z,66.45
2023-01-13T00:08:54.057Z,61.75
2023-01-13T00:11:22.215Z,57.10
2023-01-13T00:13:49.807Z,42.00
2023-01-13T00:16:19.174Z,40.40
2023-01-13T00:18:48.763Z,39.15
2023-01-13T00:21:20.205Z,35.43
2023-01-13T00:23:48.086Z,36.50
2023-01-13T00:26:19.695Z,38.90
2023-01-13T00:28:48.581Z,43.63
2023-01-13T00:31:20.556Z,38.85
2023-01-13T00:33:50.565Z,44.83
2023-01-13T00:36:20.493Z,52.67
2023-01-13T00:38:49.177Z,47.10
2023-01-13T00:41:20.140Z,39.70
2023-01-13T00:43:48.509Z,64.10
2023-01-13T00:46:20.473Z,55.08
2023-01-13T00:48:49.459Z,37.90
2023-01-13T00:51:20.343Z,35.85
2023-01-13T00:53:51.140Z,35.73
2023-01-13T00:56:39.256Z,33.58
2023-01-13T00:58:56.234Z,35.73
2023-01-13T01:01:25.344Z,37.38
2023-01-13T01:03:54.737Z,35.68
2023-01-13T01:06:25.965Z,37.67
2023-01-13T01:08:55.441Z,39.73
2023-01-13T01:11:31.302Z,45.83
2023-01-13T01:14:02.376Z,53.48
2023-01-13T01:16:32.282Z,49.95
2023-01-13T01:19:01.249Z,43.80
2023-01-13T01:21:29.609Z,40.85
2023-01-13T01:24:00.845Z,42.62
2023-01-13T01:26:30.600Z,41.33
2023-01-13T01:28:59.012Z,39.20
2023-01-13T01:31:33.770Z,45.15
2023-01-13T01:34:01.976Z,47.30
2023-01-13T01:36:29.991Z,42.00
2023-01-13T01:38:59.389Z,40.48
2023-01-13T01:41:31.218Z,39.15
2023-01-13T01:44:29.173Z,37.20
2023-01-13T01:46:57.449Z,40.33
2023-01-13T01:49:32.373Z,37.33
2023-01-13T01:52:20.236Z,33.28
2023-01-13T01:54:58.960Z,33.83
2023-01-13T01:57:34.574Z,33.45
2023-01-13T02:00:03.961Z,33.13
2023-01-13T02:02:33.818Z,33.63
2023-01-13T02:05:01.961Z,34.05
2023-01-13T02:07:33.099Z,37.20
2023-01-13T02:10:05.534Z,40.52
2023-01-13T02:12:33.759Z,32.58
2023-01-13T02:15:11.984Z,31.05
2023-01-13T02:18:07.180Z,30.90
2023-01-13T02:20:59.909Z,30.85
2023-01-13T02:24:10.158Z,33.35
2023-01-13T02:27:18.433Z,30.88
2023-01-13T02:30:28.893Z,28.12
2023-01-13T02:33:07.506Z,29.35
2023-01-13T02:35:52.155Z,30.52
2023-01-13T02:38:25.232Z,28.50
2023-01-13T02:41:29.140Z,29.75
2023-01-13T02:44:06.614Z,26.97
2023-01-13T02:46:55.993Z,27.22
2023-01-13T02:49:40.241Z,27.48
2023-01-13T02:52:13.428Z,26.57
2023-01-13T02:54:45.970Z,27.95
2023-01-13T02:57:17.017Z,28.95
2023-01-13T02:59:44.847Z,25.30
2023-01-13T03:02:17.125Z,29.45
2023-01-13T03:04:56.050Z,26.80
2023-01-13T03:08:14.805Z,26.75
2023-01-13T03:11:05.164Z,25.17
2023-01-13T03:13:56.760Z,25.70
2023-01-13T03:16:38.998Z,30.37
2023-01-13T03:19:27.151Z,32.65
2023-01-13T03:22:02.937Z,32.25
2023-01-13T03:24:38.518Z,34.00
2023-01-13T03:27:33.955Z,35.52
2023-01-13T03:30:13.080Z,38.70
2023-01-13T03:32:45.824Z,39.40
2023-01-13T03:35:27.633Z,39.75
2023-01-13T03:38:00.868Z,38.13
2023-01-13T03:40:36.112Z,40.00
2023-01-13T03:43:27.678Z,41.02
2023-01-13T03:46:00.371Z,40.20
2023-01-13T03:48:30.876Z,42.83
2023-01-13T03:51:03.999Z,48.05
2023-01-13T03:53:45.875Z,41.05
2023-01-13T03:56:21.786Z,43.40
2023-01-13T03:58:52.451Z,45.00
2023-01-13T04:01:34.259Z,46.55
2023-01-13T04:04:16.462Z,46.45
2023-01-13T04:06:52.447Z,41.48
2023-01-13T04:09:43.583Z,44.23
2023-01-13T04:12:19.423Z,63.90
2023-01-13T04:14:47.596Z,49.93
2023-01-13T04:17:16.404Z,46.83
2023-01-13T04:19:44.176Z,34.88
2023-01-13T04:22:11.940Z,24.67
2023-01-13T04:24:39.526Z,27.80
2023-01-13T04:27:07.189Z,26.87
2023-01-13T04:29:35.411Z,29.77
2023-01-13T04:32:03.194Z,36.85
2023-01-13T04:34:30.757Z,40.78
2023-01-13T04:36:58.205Z,53.75
2023-01-13T04:39:25.857Z,46.30
2023-01-13T04:41:59.353Z,45.05
2023-01-13T04:44:27.052Z,43.33
2023-01-13T04:46:54.639Z,41.55
2023-01-13T04:49:22.188Z,45.03
2023-01-13T04:51:50.534Z,51.83
2023-01-13T04:54:18.040Z,55.83
2023-01-13T04:56:45.672Z,54.60
2023-01-13T04:59:13.847Z,51.77
2023-01-13T05:01:41.812Z,48.50
2023-01-13T05:04:09.870Z,47.27
2023-01-13T05:06:37.559Z,57.35
2023-01-13T05:09:05.100Z,61.85
2023-01-13T05:11:51.793Z,60.85
2023-01-13T05:14:37.803Z,56.42
2023-01-13T05:17:05.495Z,54.35
2023-01-13T05:19:36.342Z,43.17
2023-01-13T05:22:23.687Z,43.50
2023-01-13T05:25:09.882Z,44.25
2023-01-13T05:27:37.653Z,45.85
2023-01-13T05:30:06.770Z,47.20
2023-01-13T05:32:34.679Z,37.67
2023-01-13T05:35:03.574Z,41.90
2023-01-13T05:37:31.365Z,44.73
2023-01-13T05:40:17.343Z,43.83
2023-01-13T05:43:03.462Z,41.48
2023-01-13T05:45:31.757Z,43.10
2023-01-13T05:47:59.425Z,44.85
2023-01-13T05:50:27.253Z,35.78
2023-01-13T05:52:54.849Z,43.30
2023-01-13T05:55:22.487Z,52.95
2023-01-13T05:57:50.107Z,49.85
2023-01-13T06:00:19.740Z,43.50
2023-01-13T06:02:47.386Z,42.33
2023-01-13T06:05:15.639Z,43.05
2023-01-13T06:07:43.297Z,59.08
2023-01-13T06:10:11.627Z,63.10
2023-01-13T06:12:39.040Z,66.53
2023-01-13T06:15:07.551Z,63.00
2023-01-13T06:17:35.309Z,65.30
2023-01-13T06:20:03.280Z,58.95
2023-01-13T06:22:32.379Z,57.17
2023-01-13T06:24:59.966Z,43.50
2023-01-13T06:27:29.878Z,40.88
2023-01-13T06:29:57.873Z,38.63
2023-01-13T06:32:29.441Z,41.30
2023-01-13T06:35:05.287Z,41.02
2023-01-13T06:37:33.474Z,37.65
2023-01-13T06:40:03.921Z,42.13
2023-01-13T06:42:54.423Z,49.33
2023-01-13T06:45:25.265Z,51.18
2023-01-13T06:47:54.234Z,43.73
2023-01-13T06:50:21.939Z,40.80
2023-01-13T06:52:49.323Z,37.73
2023-01-13T06:55:17.175Z,32.15
2023-01-13T06:57:56.846Z,29.95
2023-01-13T07:00:26.279Z,33.38
2023-01-13T07:02:54.111Z,35.50
2023-01-13T07:05:22.212Z,33.58
2023-01-13T07:07:49.677Z,32.70
2023-01-13T07:10:19.520Z,36.80
2023-01-13T07:13:05.423Z,31.60
2023-01-13T07:15:34.291Z,31.97
2023-01-13T07:18:03.058Z,35.30
2023-01-13T07:20:31.216Z,33.58
2023-01-13T07:22:58.973Z,34.13
2023-01-13T07:25:26.575Z,32.70
2023-01-13T07:27:56.847Z,31.77
2023-01-13T07:30:24.403Z,34.15
2023-01-13T07:32:51.963Z,36.83
2023-01-13T07:35:21.379Z,39.60
2023-01-13T07:37:49.078Z,31.12
2023-01-13T07:40:17.155Z,30.23
2023-01-13T07:43:02.999Z,35.70
2023-01-13T07:45:30.935Z,39.20
2023-01-13T07:47:58.661Z,37.45
2023-01-13T07:50:26.381Z,35.85
2023-01-13T07:52:57.938Z,34.05
2023-01-13T07:55:25.624Z,39.70
2023-01-13T07:57:53.360Z,42.83
2023-01-13T08:00:22.570Z,41.53
2023-01-13T08:02:50.088Z,42.23
2023-01-13T08:05:17.955Z,37.63
2023-01-13T08:07:45.449Z,36.58
2023-01-13T08:10:13.193Z,42.23
2023-01-13T08:12:59.351Z,46.75
2023-01-13T08:15:28.968Z,47.45
2023-01-13T08:17:58.843Z,44.53
2023-01-13T08:20:27.011Z,41.75
2023-01-13T08:22:59.007Z,42.38
2023-01-13T08:25:28.845Z,60.03
2023-01-13T08:27:59.190Z,64.80
2023-01-13T08:30:27.845Z,40.38
2023-01-13T08:32:55.503Z,37.00
2023-01-13T08:35:23.421Z,44.35
2023-01-13T08:37:51.606Z,44.77
2023-01-13T08:40:20.376Z,38.67
2023-01-13T08:42:48.821Z,37.98
2023-01-13T08:45:16.560Z,45.15
2023-01-13T08:47:44.403Z,44.20
2023-01-13T08:50:12.593Z,36.83
2023-01-13T08:52:41.163Z,36.58
2023-01-13T08:55:09.629Z,35.17
2023-01-13T08:57:37.251Z,36.95
2023-01-13T09:00:08.231Z,40.60
2023-01-13T09:02:38.055Z,41.23
2023-01-13T09:05:07.087Z,60.83
2023-01-13T09:07:38.168Z,58.70
2023-01-13T09:10:08.063Z,48.02
2023-01-13T09:12:54.886Z,48.25
2023-01-13T09:15:22.681Z,52.45
2023-01-13T09:17:50.366Z,42.70
2023-01-13T09:20:18.523Z,41.40
2023-01-13T09:22:46.166Z,37.03
2023-01-13T09:25:14.013Z,34.90
2023-01-13T09:27:41.594Z,35.17
2023-01-13T09:30:11.313Z,37.63
2023-01-13T09:32:38.859Z,34.65
2023-01-13T09:35:08.363Z,33.25
2023-01-13T09:37:39.809Z,33.85
2023-01-13T09:40:13.355Z,38.25
2023-01-13T09:45:59.865Z,33.33
2023-01-13T09:48:39.256Z,30.37
2023-01-13T09:51:21.102Z,34.00
2023-01-13T09:53:55.416Z,34.70
2023-01-13T09:56:24.435Z,34.48
2023-01-13T09:58:52.380Z,30.82
2023-01-13T10:01:42.196Z,29.55
2023-01-13T10:04:15.306Z,26.27
2023-01-13T10:06:48.014Z,28.75
2023-01-13T10:09:21.073Z,29.45
2023-01-13T10:12:08.819Z,27.17
2023-01-13T10:14:52.676Z,24.40
2023-01-13T10:20:28.473Z,24.20
2023-01-13T10:23:22.491Z,20.72
2023-01-13T10:26:13.772Z,17.87
2023-01-13T10:28:41.217Z,15.93
2023-01-13T10:31:12.864Z,20.40
2023-01-13T10:33:40.474Z,19.87
2023-01-13T10:36:22.585Z,23.00
2023-01-13T10:38:50.943Z,19.77
2023-01-13T10:41:26.049Z,18.70
2023-01-13T10:44:04.323Z,18.50
2023-01-13T10:46:35.495Z,23.73
2023-01-13T10:49:20.324Z,16.00
2023-01-13T10:51:48.720Z,18.80
2023-01-13T10:54:24.489Z,16.60
2023-01-13T10:57:23.102Z,17.57
2023-01-13T10:59:52.433Z,16.80
2023-01-13T11:02:32.275Z,17.32
2023-01-13T11:05:05.250Z,19.75
2023-01-13T11:07:43.173Z,20.97
2023-01-13T11:10:27.360Z,19.75
2023-01-13T11:13:11.629Z,17.67
2023-01-13T11:15:54.962Z,19.87
2023-01-13T11:18:54.250Z,15.32
2023-01-13T11:21:29.862Z,22.73
2023-01-13T11:24:18.072Z,19.37
2023-01-13T11:26:57.140Z,17.57
2023-01-13T11:29:39.375Z,17.90
2023-01-13T11:32:14.694Z,18.55
2023-01-13T11:34:47.276Z,19.17
2023-01-13T11:37:28.586Z,21.17
2023-01-13T11:40:11.300Z,20.20
2023-01-13T11:42:56.083Z,18.10
2023-01-13T11:45:43.092Z,16.82
2023-01-13T11:48:15.639Z,20.20
2023-01-13T11:51:12.819Z,20.17
2023-01-13T11:54:13.040Z,18.82
2023-01-13T11:57:02.839Z,20.08
2023-01-13T11:59:52.621Z,20.23
2023-01-13T12:03:05.680Z,17.82
2023-01-13T12:05:40.636Z,18.37
2023-01-13T12:09:01.166Z,17.10
2023-01-13T12:12:16.907Z,15.75
2023-01-13T12:15:23.697Z,16.87
2023-01-13T12:18:20.640Z,13.60
2023-01-13T12:21:00.958Z,14.63
2023-01-13T12:23:48.704Z,13.65
2023-01-13T12:26:16.891Z,13.25
2023-01-13T12:28:52.455Z,14.15
2023-01-13T12:31:22.415Z,15.45
2023-01-13T12:34:14.192Z,14.98
2023-01-13T12:37:06.843Z,14.95
2023-01-13T12:40:11.539Z,15.58
2023-01-13T12:43:26.344Z,18.45
2023-01-13T12:48:54.691Z,12.82
2023-01-13T12:51:32.185Z,13.18
2023-01-13T12:54:05.336Z,18.87
2023-01-13T12:56:44.019Z,13.55
2023-01-13T12:59:22.219Z,16.32
2023-01-13T13:02:15.029Z,15.48
2023-01-13T13:04:51.291Z,14.47
2023-01-13T13:07:36.342Z,16.55
2023-01-13T13:10:27.381Z,13.90
2023-01-13T13:13:19.741Z,14.00
2023-01-13T13:15:50.554Z,13.45
2023-01-13T13:18:26.727Z,15.40
2023-01-13T13:21:11.067Z,13.62
2023-01-13T13:23:50.118Z,14.38
2023-01-13T13:26:37.411Z,15.18
2023-01-13T13:29:27.516Z,14.40
2023-01-13T13:32:27.407Z,19.80
2023-01-13T13:35:27.394Z,15.38
2023-01-13T13:38:40.218Z,13.45
2023-01-13T13:41:34.404Z,12.18
2023-01-13T13:44:35.918Z,13.32
2023-01-13T13:47:05.915Z,13.35
2023-01-13T13:49:46.074Z,18.62
2023-01-13T13:52:31.340Z,20.75
2023-01-13T13:55:04.306Z,25.48
2023-01-13T13:57:39.837Z,12.60
2023-01-13T14:00:22.541Z,16.65
2023-01-13T14:03:01.072Z,20.15
2023-01-13T14:05:36.814Z,14.38
2023-01-13T14:08:16.853Z,12.23
2023-01-13T14:10:45.948Z,12.80
2023-01-13T14:13:28.985Z,13.58
2023-01-13T14:16:05.987Z,16.50
2023-01-13T14:18:46.956Z,13.22
2023-01-13T14:21:23.286Z,14.13
2023-01-13T14:23:54.616Z,14.43
2023-01-13T14:26:29.997Z,15.78
2023-01-13T14:29:00.888Z,15.75
2023-01-13T14:31:29.410Z,17.70
2023-01-13T14:34:01.105Z,16.75
2023-01-13T14:36:38.424Z,16.57
2023-01-13T14:39:11.454Z,18.20
2023-01-13T14:41:46.764Z,17.52
2023-01-13T14:44:35.616Z,17.00
2023-01-13T14:47:21.782Z,19.95
2023-01-13T14:50:19.329Z,17.77
2023-01-13T14:52:56.609Z,19.50
2023-01-13T14:55:37.955Z,20.30
2023-01-13T14:58:27.170Z,17.98
2023-01-13T15:01:29.041Z,22.67
2023-01-13T15:04:25.725Z,20.35
2023-01-13T15:06:56.784Z,22.60
2023-01-13T15:09:29.254Z,21.73
2023-01-13T15:11:58.221Z,23.18
2023-01-13T15:14:31.089Z,22.25
2023-01-13T15:16:58.621Z,22.48
2023-01-13T15:19:26.188Z,26.97
2023-01-13T15:21:53.582Z,28.05
2023-01-13T15:24:21.194Z,26.27
2023-01-13T15:26:48.691Z,27.90
2023-01-13T15:29:16.371Z,24.52
2023-01-13T15:31:44.341Z,26.52
2023-01-13T15:34:12.003Z,28.35
2023-01-13T15:36:40.090Z,34.18
2023-01-13T15:39:10.071Z,35.52
2023-01-13T15:41:56.500Z,29.15
2023-01-13T15:44:42.746Z,32.33
2023-01-13T15:47:10.575Z,29.87
2023-01-13T15:49:42.360Z,31.30
2023-01-13T15:52:23.218Z,27.77
2023-01-13T15:54:52.139Z,30.50
2023-01-13T15:57:26.984Z,28.98
2023-01-13T16:00:01.755Z,29.20
2023-01-13T16:02:31.058Z,30.17
2023-01-13T16:04:58.493Z,29.05
2023-01-13T16:07:26.297Z,28.87
2023-01-13T16:09:54.417Z,28.40
2023-01-13T16:12:22.066Z,32.67
2023-01-13T16:14:49.722Z,37.83
2023-01-13T16:17:21.655Z,38.65
2023-01-13T16:19:50.171Z,38.38
2023-01-13T16:22:18.250Z,38.67
2023-01-13T16:24:46.017Z,39.25
2023-01-13T16:27:20.241Z,35.35
2023-01-13T16:29:49.364Z,36.80
2023-01-13T16:32:17.174Z,37.60
2023-01-13T16:34:46.261Z,38.48
2023-01-13T16:37:25.061Z,31.62
2023-01-13T16:39:54.341Z,30.95
2023-01-13T16:42:22.129Z,32.42
2023-01-13T16:44:50.167Z,32.28
2023-01-13T16:47:18.593Z,32.50
2023-01-13T16:49:47.255Z,32.88
2023-01-13T16:52:15.009Z,35.55
2023-01-13T16:54:42.653Z,33.85
2023-01-13T16:57:13.641Z,32.78
2023-01-13T16:59:41.441Z,29.82
2023-01-13T17:02:14.774Z,29.55
2023-01-13T17:04:42.990Z,36.90
2023-01-13T17:07:15.229Z,31.05
2023-01-13T17:09:43.012Z,31.65
2023-01-13T17:12:11.231Z,31.07
2023-01-13T17:14:39.580Z,40.67
2023-01-13T17:17:15.308Z,50.78
2023-01-13T17:19:43.157Z,33.95
2023-01-13T17:22:10.710Z,35.58
2023-01-13T17:24:38.385Z,40.55
2023-01-13T17:27:06.409Z,44.83
2023-01-13T17:29:34.020Z,48.02
2023-01-13T17:32:01.962Z,61.73
2023-01-13T17:34:29.578Z,57.38
2023-01-13T17:36:57.545Z,59.65
2023-01-13T17:39:26.525Z,67.32
2023-01-13T17:41:55.556Z,66.45
2023-01-13T17:44:23.515Z,76.72
2023-01-13T17:46:51.238Z,83.20
2023-01-13T17:49:21.345Z,60.15
2023-01-13T17:51:51.029Z,90.20
2023-01-13T17:54:19.516Z,105.85
2023-01-13T17:56:47.255Z,84.05
2023-01-13T17:59:18.085Z,100.27
2023-01-13T18:01:46.479Z,112.00
2023-01-13T18:04:17.281Z,106.52
2023-01-13T18:06:45.569Z,105.25
2023-01-13T18:09:13.249Z,129.78
2023-01-13T18:11:41.771Z,128.02
2023-01-13T18:14:09.739Z,141.57
2023-01-13T18:16:37.435Z,129.10
2023-01-13T18:19:24.104Z,121.00
2023-01-13T18:22:10.344Z,116.12
2023-01-13T18:24:56.029Z,120.97
2023-01-13T18:27:28.715Z,139.50
2023-01-13T18:29:59.107Z,125.87
2023-01-13T18:32:33.277Z,128.85
2023-01-13T18:35:06.975Z,123.00
2023-01-13T18:37:35.641Z,113.70
2023-01-13T18:40:05.350Z,96.05
2023-01-13T18:42:51.558Z,85.95
2023-01-13T18:45:23.773Z,90.95
2023-01-13T18:47:53.049Z,95.45
2023-01-13T18:50:21.816Z,126.80
2023-01-13T18:52:50.176Z,114.95
2023-01-13T18:55:18.305Z,121.35
2023-01-13T18:57:46.313Z,121.13
2023-01-13T19:00:19.045Z,111.32
2023-01-13T19:02:47.921Z,118.97
2023-01-13T19:05:15.998Z,126.87
2023-01-13T19:07:45.825Z,136.40
2023-01-13T19:10:13.801Z,129.00
2023-01-13T19:12:41.815Z,123.05
2023-01-13T19:15:10.770Z,127.78
2023-01-13T19:17:38.683Z,134.93
2023-01-13T19:20:07.763Z,139.15
2023-01-13T19:22:35.399Z,120.30
2023-01-13T19:25:04.914Z,135.68
2023-01-13T19:27:32.433Z,141.65
2023-01-13T19:30:00.755Z,126.45
2023-01-13T19:32:30.334Z,108.35
2023-01-13T19:34:59.379Z,102.35
2023-01-13T19:37:32.575Z,98.27
2023-01-13T19:40:00.180Z,98.57
2023-01-13T19:42:46.475Z,108.32
2023-01-13T19:45:30.247Z,109.57
2023-01-13T19:48:04.173Z,123.70
2023-01-13T19:50:38.133Z,116.88
2023-01-13T19:53:07.112Z,107.87
2023-01-13T19:55:34.774Z,98.65
2023-01-13T19:58:03.485Z,89.52
2023-01-13T20:00:31.126Z,97.95
2023-01-13T20:03:00.739Z,138.85
2023-01-13T20:05:28.847Z,238.68
2023-01-13T20:07:56.378Z,274.67
2023-01-13T20:10:24.561Z,234.35
2023-01-13T20:12:52.112Z,190.38
2023-01-13T20:15:19.778Z,176.27
2023-01-13T20:17:47.720Z,125.95
2023-01-13T20:20:16.261Z,108.95
2023-01-13T20:22:43.835Z,78.78
2023-01-13T20:25:13.951Z,80.92
2023-01-13T20:27:42.151Z,85.62
2023-01-13T20:30:12.951Z,84.52
2023-01-13T20:32:43.275Z,132.47
2023-01-13T20:35:11.373Z,162.62
2023-01-13T20:37:41.661Z,134.07
2023-01-13T20:40:14.072Z,112.92
2023-01-13T20:42:43.740Z,109.32
2023-01-13T20:45:17.227Z,91.55
2023-01-13T20:47:45.426Z,79.15
2023-01-13T20:50:14.197Z,71.07
2023-01-13T20:52:41.815Z,68.17
2023-01-13T20:55:11.149Z,77.67
2023-01-13T20:57:40.250Z,74.75
2023-01-13T21:00:10.345Z,75.05
2023-01-13T21:02:40.301Z,78.92
2023-01-13T21:05:09.313Z,82.35
2023-01-13T21:07:36.640Z,87.08
2023-01-13T21:10:05.281Z,90.75
2023-01-13T21:12:51.322Z,90.38
2023-01-13T21:15:21.311Z,97.17
2023-01-13T21:18:09.588Z,85.85
2023-01-13T21:20:38.877Z,82.37
2023-01-13T21:23:07.812Z,75.05
2023-01-13T21:25:37.323Z,81.02
2023-01-13T21:28:05.849Z,85.65
2023-01-13T21:30:34.521Z,107.05
2023-01-13T21:33:03.509Z,129.18
2023-01-13T21:35:31.204Z,123.10
2023-01-13T21:37:58.868Z,133.18
2023-01-13T21:40:26.690Z,136.68
2023-01-13T21:43:12.586Z,137.62
2023-01-13T21:45:58.726Z,127.35
2023-01-13T21:48:26.627Z,130.65
2023-01-13T21:50:54.098Z,92.95
2023-01-13T21:53:21.674Z,76.92
2023-01-13T21:55:52.443Z,82.82
2023-01-13T21:58:19.971Z,91.63
2023-01-13T22:00:49.092Z,91.32
2023-01-13T22:03:19.471Z,97.12
2023-01-13T22:05:55.018Z,95.17
2023-01-13T22:08:22.681Z,104.55
2023-01-13T22:11:00.211Z,123.02
2023-01-13T22:13:47.998Z,109.42
2023-01-13T22:16:16.001Z,116.03
2023-01-13T22:18:43.759Z,110.42
2023-01-13T22:21:11.358Z,90.95
2023-01-13T22:23:38.850Z,85.17
2023-01-13T22:26:07.875Z,78.30
2023-01-13T22:28:43.511Z,73.22
2023-01-13T22:31:17.615Z,66.28
2023-01-13T22:33:46.648Z,64.58
2023-01-13T22:36:15.346Z,60.90
2023-01-13T22:38:42.863Z,55.23
2023-01-13T22:41:10.743Z,54.40
2023-01-13T22:43:38.988Z,55.95
2023-01-13T22:46:12.175Z,58.95
2023-01-13T22:48:41.208Z,58.83
2023-01-13T22:51:12.565Z,62.17
2023-01-13T22:53:41.364Z,61.83
2023-01-13T22:56:15.879Z,53.20
2023-01-13T22:58:44.376Z,67.95
2023-01-13T23:01:16.999Z,57.62
2023-01-13T23:03:47.397Z,61.97
2023-01-13T23:06:17.744Z,67.00
2023-01-13T23:08:46.646Z,66.77
2023-01-13T23:11:16.781Z,61.90
2023-01-13T23:13:45.277Z,58.70
2023-01-13T23:16:17.616Z,62.88
2023-01-13T23:18:47.350Z,61.08
2023-01-13T23:21:25.955Z,65.80
2023-01-13T23:23:53.856Z,52.83
2023-01-13T23:26:22.150Z,52.13
2023-01-13T23:28:50.132Z,56.60
2023-01-13T23:31:21.039Z,57.90
2023-01-13T23:33:49.085Z,72.60
2023-01-13T23:36:23.332Z,81.50
2023-01-13T23:38:52.528Z,84.72
2023-01-13T23:41:23.298Z,74.85
2023-01-13T23:43:57.442Z,64.47
2023-01-13T23:46:27.476Z,61.42
2023-01-13T23:48:55.164Z,57.55
2023-01-13T23:51:24.726Z,52.48
2023-01-13T23:53:52.790Z,50.03
2023-01-13T23:56:24.113Z,48.30
2023-01-13T23:58:52.715Z,48.63
